createdAt,value
2019-02-02T00:01:01.296Z,21.60
2019-02-02T00:03:34.952Z,27.95
2019-02-02T00:06:08.498Z,31.33
2019-02-02T00:08:43.121Z,19.52
2019-02-02T00:11:17.594Z,23.95
2019-02-02T00:13:51.291Z,24.65
2019-02-02T00:16:24.975Z,22.62
2019-02-02T00:18:58.535Z,22.50
2019-02-02T00:21:32.876Z,23.62
2019-02-02T00:24:06.455Z,24.75
2019-02-02T00:26:40.023Z,21.02
2019-02-02T00:29:14.547Z,27.85
2019-02-02T00:31:48.182Z,22.42
2019-02-02T00:34:21.730Z,21.25
2019-02-02T00:36:55.304Z,20.52
2019-02-02T00:39:29.748Z,24.23
2019-02-02T00:42:04.227Z,23.20
2019-02-02T00:44:37.992Z,23.10
2019-02-02T00:47:11.535Z,25.95
2019-02-02T00:49:45.234Z,19.90
2019-02-02T00:52:18.839Z,21.55
2019-02-02T00:54:52.451Z,23.90
2019-02-02T00:57:26.224Z,25.58
2019-02-02T00:59:59.852Z,21.60
2019-02-02T01:02:33.460Z,26.02
2019-02-02T01:05:08.620Z,21.65
2019-02-02T01:07:42.351Z,21.83
2019-02-02T01:10:21.970Z,20.25
2019-02-02T01:12:55.481Z,26.67
2019-02-02T01:15:29.127Z,20.95
2019-02-02T01:18:02.711Z,25.77
2019-02-02T01:20:36.259Z,20.05
2019-02-02T01:23:09.955Z,19.75
2019-02-02T01:25:43.657Z,22.20
2019-02-02T01:28:17.224Z,20.88
2019-02-02T01:30:50.836Z,18.90
2019-02-02T01:33:24.442Z,16.08
2019-02-02T01:35:58.931Z,19.45
2019-02-02T01:38:32.462Z,22.23
2019-02-02T01:41:06.063Z,17.35
2019-02-02T01:43:39.821Z,17.15
2019-02-02T01:46:13.411Z,15.95
2019-02-02T01:48:47.148Z,19.55
2019-02-02T01:51:20.759Z,22.05
2019-02-02T01:53:54.354Z,22.42
2019-02-02T01:56:28.158Z,20.35
2019-02-02T01:59:01.744Z,20.08
2019-02-02T02:01:36.064Z,20.15
2019-02-02T02:04:09.825Z,15.57
2019-02-02T02:06:43.325Z,18.42
2019-02-02T02:09:16.877Z,19.05
2019-02-02T02:11:51.395Z,18.20
2019-02-02T02:14:25.092Z,22.60
2019-02-02T02:16:59.519Z,21.40
2019-02-02T02:19:33.234Z,19.77
2019-02-02T02:22:07.577Z,20.12
2019-02-02T02:24:41.206Z,16.98
2019-02-02T02:27:14.727Z,17.00
2019-02-02T02:29:48.435Z,20.40
2019-02-02T02:32:21.982Z,19.55
2019-02-02T02:34:56.536Z,21.48
2019-02-02T02:37:30.163Z,18.48
2019-02-02T02:40:03.840Z,27.20
2019-02-02T02:42:37.554Z,23.98
2019-02-02T02:45:11.171Z,19.25
2019-02-02T02:47:44.947Z,18.90
2019-02-02T02:50:18.570Z,19.77
2019-02-02T02:52:52.219Z,16.58
2019-02-02T02:55:25.986Z,22.75
2019-02-02T02:57:59.527Z,24.00
2019-02-02T03:00:33.088Z,18.42
2019-02-02T03:03:07.398Z,17.60
2019-02-02T03:05:41.052Z,18.60
2019-02-02T03:08:14.699Z,18.87
2019-02-02T03:10:48.257Z,19.35
2019-02-02T03:13:21.818Z,15.85
2019-02-02T03:15:55.350Z,15.50
2019-02-02T03:18:29.004Z,17.42
2019-02-02T03:21:02.542Z,14.65
2019-02-02T03:23:36.329Z,17.27
2019-02-02T03:26:10.072Z,17.23
2019-02-02T03:28:53.075Z,17.30
2019-02-02T03:31:17.440Z,19.15
2019-02-02T03:33:51.207Z,20.60
2019-02-02T03:36:24.738Z,14.48
2019-02-02T03:38:58.258Z,17.60
2019-02-02T03:41:31.978Z,15.48
2019-02-02T03:44:05.616Z,18.65
2019-02-02T03:46:39.340Z,16.17
2019-02-02T03:49:13.927Z,16.42
2019-02-02T03:51:47.548Z,13.75
2019-02-02T03:54:21.226Z,15.13
2019-02-02T03:56:55.666Z,15.65
2019-02-02T03:59:29.251Z,16.75
2019-02-02T04:02:02.848Z,16.30
2019-02-02T04:04:37.406Z,15.38
2019-02-02T04:07:11.208Z,25.15
2019-02-02T04:09:44.888Z,17.45
2019-02-02T04:12:18.490Z,14.85
2019-02-02T04:14:52.118Z,18.35
2019-02-02T04:17:25.729Z,17.67
2019-02-02T04:19:59.427Z,20.27
2019-02-02T04:22:35.779Z,16.90
2019-02-02T04:25:07.516Z,17.45
2019-02-02T04:27:41.259Z,14.75
2019-02-02T04:30:14.859Z,17.87
2019-02-02T04:32:48.480Z,17.05
2019-02-02T04:35:22.167Z,17.40
2019-02-02T04:37:55.829Z,16.15
2019-02-02T04:40:29.435Z,13.85
2019-02-02T04:43:03.094Z,16.48
2019-02-02T04:45:36.657Z,19.55
2019-02-02T04:48:10.215Z,16.00
2019-02-02T04:50:44.603Z,16.80
2019-02-02T04:53:18.280Z,13.82
2019-02-02T04:55:51.909Z,17.00
2019-02-02T04:58:26.027Z,16.05
2019-02-02T05:00:59.700Z,16.73
2019-02-02T05:03:33.459Z,12.18
2019-02-02T05:06:07.012Z,16.77
2019-02-02T05:08:40.609Z,11.75
2019-02-02T05:11:14.289Z,15.18
2019-02-02T05:13:47.827Z,16.40
2019-02-02T05:16:22.082Z,13.85
2019-02-02T05:18:55.796Z,15.82
2019-02-02T05:21:30.363Z,17.50
2019-02-02T05:24:03.976Z,18.23
2019-02-02T05:26:37.757Z,17.70
2019-02-02T05:29:12.189Z,16.52
2019-02-02T05:31:45.872Z,13.82
2019-02-02T05:34:19.404Z,16.30
2019-02-02T05:36:56.555Z,20.25
2019-02-02T05:39:30.229Z,15.43
2019-02-02T05:42:03.795Z,17.10
2019-02-02T05:44:37.431Z,17.27
2019-02-02T05:47:11.885Z,18.05
2019-02-02T05:49:45.484Z,16.50
2019-02-02T05:52:19.011Z,14.65
2019-02-02T05:54:52.594Z,16.25
2019-02-02T05:57:26.288Z,18.62
2019-02-02T05:59:59.903Z,14.00
2019-02-02T06:02:33.646Z,14.20
2019-02-02T06:05:07.243Z,15.32
2019-02-02T06:07:41.020Z,15.85
2019-02-02T06:10:16.364Z,18.90
2019-02-02T06:12:50.043Z,18.83
2019-02-02T06:15:23.567Z,18.67
2019-02-02T06:17:57.252Z,18.48
2019-02-02T06:20:30.825Z,19.12
2019-02-02T06:23:04.450Z,21.12
2019-02-02T06:25:38.025Z,17.30
2019-02-02T06:28:12.391Z,20.48
2019-02-02T06:30:46.097Z,18.20
2019-02-02T06:33:20.588Z,15.95
2019-02-02T06:35:54.345Z,19.65
2019-02-02T06:38:27.877Z,17.00
2019-02-02T06:41:01.431Z,20.27
2019-02-02T06:43:35.087Z,19.75
2019-02-02T06:46:09.433Z,17.02
2019-02-02T06:48:43.161Z,15.38
2019-02-02T06:51:16.927Z,16.62
2019-02-02T06:53:50.478Z,17.15
2019-02-02T06:56:24.082Z,17.85
2019-02-02T06:58:58.440Z,17.23
2019-02-02T07:01:32.942Z,22.58
2019-02-02T07:04:06.637Z,15.63
2019-02-02T07:06:40.196Z,17.50
2019-02-02T07:09:13.923Z,14.38
2019-02-02T07:11:47.470Z,21.52
2019-02-02T07:14:21.206Z,19.00
2019-02-02T07:16:55.528Z,16.73
2019-02-02T07:19:29.361Z,16.83
2019-02-02T07:22:03.712Z,23.23
2019-02-02T07:24:38.292Z,17.05
2019-02-02T07:27:11.933Z,17.98
2019-02-02T07:29:45.565Z,14.65
2019-02-02T07:32:19.167Z,19.10
2019-02-02T07:34:52.999Z,16.98
2019-02-02T07:37:26.667Z,16.67
2019-02-02T07:40:00.273Z,18.60
2019-02-02T07:42:34.018Z,16.52
2019-02-02T07:45:22.388Z,18.12
2019-02-02T07:47:55.934Z,17.05
2019-02-02T07:50:30.368Z,27.80
2019-02-02T07:53:04.190Z,21.15
2019-02-02T07:55:37.721Z,18.27
2019-02-02T07:58:11.494Z,18.12
2019-02-02T08:00:45.271Z,15.45
2019-02-02T08:03:19.787Z,19.50
2019-02-02T08:05:54.106Z,17.98
2019-02-02T08:08:27.849Z,21.23
2019-02-02T08:11:01.667Z,22.00
2019-02-02T08:13:36.039Z,20.77
2019-02-02T08:16:10.546Z,21.25
2019-02-02T08:18:44.307Z,18.40
2019-02-02T08:21:18.082Z,17.60
2019-02-02T08:23:52.487Z,16.55
2019-02-02T08:26:26.175Z,20.65
2019-02-02T08:29:00.530Z,19.37
2019-02-02T08:31:35.529Z,21.73
2019-02-02T08:34:09.288Z,24.98
2019-02-02T08:36:43.751Z,22.25
2019-02-02T08:39:28.715Z,17.17
2019-02-02T08:41:51.423Z,21.05
2019-02-02T08:44:25.226Z,17.80
2019-02-02T08:46:59.017Z,22.42
2019-02-02T08:49:32.610Z,18.20
2019-02-02T08:52:06.430Z,20.40
2019-02-02T08:54:40.155Z,22.00
2019-02-02T08:57:14.567Z,23.50
2019-02-02T08:59:48.936Z,17.73
2019-02-02T09:02:22.568Z,14.63
2019-02-02T09:04:56.170Z,21.50
2019-02-02T09:07:29.691Z,21.52
2019-02-02T09:10:04.389Z,21.95
2019-02-02T09:12:38.226Z,24.25
2019-02-02T09:15:12.083Z,26.85
2019-02-02T09:17:45.933Z,33.17
2019-02-02T09:20:19.475Z,20.37
2019-02-02T09:23:03.931Z,19.08
2019-02-02T09:25:27.023Z,24.60
2019-02-02T09:28:01.524Z,20.05
2019-02-02T09:30:35.146Z,20.55
2019-02-02T09:33:08.867Z,20.20
2019-02-02T09:35:42.487Z,20.35
2019-02-02T09:38:16.248Z,17.95
2019-02-02T09:40:50.783Z,17.85
2019-02-02T09:43:24.352Z,16.33
2019-02-02T09:45:58.178Z,14.70
2019-02-02T09:48:31.904Z,16.65
2019-02-02T09:51:05.450Z,18.98
2019-02-02T09:53:38.996Z,17.05
2019-02-02T09:56:12.554Z,15.57
2019-02-02T09:58:46.162Z,18.37
2019-02-02T10:01:27.583Z,13.90
2019-02-02T10:03:53.946Z,14.13
2019-02-02T10:06:27.718Z,18.10
2019-02-02T10:09:01.429Z,18.45
2019-02-02T10:11:35.740Z,17.55
2019-02-02T10:14:09.390Z,17.77
2019-02-02T10:16:43.044Z,20.58
2019-02-02T10:19:16.878Z,16.00
2019-02-02T10:21:50.615Z,16.65
2019-02-02T10:24:25.063Z,16.70
2019-02-02T10:26:58.826Z,15.93
2019-02-02T10:29:32.558Z,16.98
2019-02-02T10:32:06.237Z,18.40
2019-02-02T10:34:40.740Z,29.33
2019-02-02T10:37:14.374Z,19.00
2019-02-02T10:39:48.907Z,14.45
2019-02-02T10:42:22.847Z,13.52
2019-02-02T10:44:56.603Z,14.32
2019-02-02T10:47:30.486Z,12.05
2019-02-02T10:50:04.151Z,12.00
2019-02-02T10:52:37.993Z,11.70
2019-02-02T10:55:11.648Z,12.52
2019-02-02T10:57:45.190Z,12.23
2019-02-02T11:00:23.490Z,13.10
2019-02-02T11:02:57.087Z,12.45
2019-02-02T11:05:30.935Z,13.62
2019-02-02T11:08:05.040Z,18.05
2019-02-02T11:10:38.899Z,13.15
2019-02-02T11:13:12.374Z,13.68
2019-02-02T11:15:46.390Z,12.55
2019-02-02T11:18:19.798Z,12.07
2019-02-02T11:20:53.526Z,13.73
2019-02-02T11:23:27.196Z,12.32
2019-02-02T11:26:01.086Z,15.38
2019-02-02T11:28:34.635Z,13.55
2019-02-02T11:31:08.354Z,13.35
2019-02-02T11:33:44.320Z,12.57
2019-02-02T11:36:15.771Z,10.60
2019-02-02T11:38:49.308Z,11.80
2019-02-02T11:41:23.009Z,15.70
2019-02-02T11:43:56.727Z,15.73
2019-02-02T11:46:30.373Z,15.82
2019-02-02T11:49:03.974Z,12.07
2019-02-02T11:51:37.760Z,14.45
2019-02-02T11:54:11.327Z,12.45
2019-02-02T11:56:45.826Z,15.07
2019-02-02T11:59:20.208Z,15.05
2019-02-02T12:01:53.918Z,12.75
2019-02-02T12:04:27.471Z,17.55
2019-02-02T12:07:01.175Z,12.15
2019-02-02T12:09:34.787Z,12.05
2019-02-02T12:12:08.539Z,10.57
2019-02-02T12:14:42.100Z,8.07
2019-02-02T12:17:15.724Z,10.25
2019-02-02T12:19:49.274Z,9.95
2019-02-02T12:22:22.920Z,9.05
2019-02-02T12:24:56.476Z,8.52
2019-02-02T12:27:30.246Z,8.80
2019-02-02T12:30:06.740Z,9.35
2019-02-02T12:32:40.479Z,10.32
2019-02-02T12:35:14.972Z,14.50
2019-02-02T12:37:48.768Z,12.57
2019-02-02T12:40:22.334Z,12.23
2019-02-02T12:42:56.032Z,10.35
2019-02-02T12:45:35.434Z,13.82
2019-02-02T12:48:09.244Z,25.92
2019-02-02T12:50:42.792Z,11.40
2019-02-02T12:53:16.640Z,13.35
2019-02-02T12:55:50.402Z,16.50
2019-02-02T12:58:24.174Z,14.68
2019-02-02T13:00:57.867Z,16.25
2019-02-02T13:03:31.453Z,17.05
2019-02-02T13:06:05.053Z,17.73
2019-02-02T13:08:38.732Z,18.20
2019-02-02T13:11:13.249Z,21.20
2019-02-02T13:13:46.959Z,19.75
2019-02-02T13:16:20.536Z,26.33
2019-02-02T13:18:54.209Z,17.40
2019-02-02T13:21:27.793Z,21.20
2019-02-02T13:24:02.107Z,17.17
2019-02-02T13:26:35.874Z,20.12
2019-02-02T13:29:09.614Z,21.42
2019-02-02T13:31:43.406Z,22.83
2019-02-02T13:34:17.174Z,21.50
2019-02-02T13:36:50.733Z,21.23
2019-02-02T13:39:24.549Z,24.00
2019-02-02T13:41:58.276Z,22.25
2019-02-02T13:44:31.968Z,19.77
2019-02-02T13:47:05.571Z,20.62
2019-02-02T13:49:39.144Z,20.08
2019-02-02T13:52:12.954Z,19.60
2019-02-02T13:54:46.560Z,19.20
2019-02-02T13:57:20.224Z,22.83
2019-02-02T13:59:54.058Z,17.35
2019-02-02T14:02:27.870Z,22.13
2019-02-02T14:05:01.528Z,20.40
2019-02-02T14:07:35.292Z,24.17
2019-02-02T14:10:09.075Z,18.73
2019-02-02T14:12:42.830Z,21.23
2019-02-02T14:15:16.635Z,22.17
2019-02-02T14:17:50.309Z,21.52
2019-02-02T14:20:23.998Z,19.73
2019-02-02T14:22:58.350Z,20.60
2019-02-02T14:25:34.104Z,19.08
2019-02-02T14:28:08.032Z,16.67
2019-02-02T14:30:41.771Z,16.17
2019-02-02T14:33:16.129Z,15.32
2019-02-02T14:35:49.795Z,16.52
2019-02-02T14:38:23.535Z,17.33
2019-02-02T14:40:57.410Z,16.17
2019-02-02T14:43:31.276Z,16.35
2019-02-02T14:46:05.026Z,17.52
2019-02-02T14:48:38.947Z,16.52
2019-02-02T14:51:12.647Z,14.95
2019-02-02T14:53:46.318Z,17.98
2019-02-02T14:56:19.998Z,10.40
2019-02-02T14:58:54.483Z,14.45
2019-02-02T15:01:28.228Z,14.82
2019-02-02T15:04:01.892Z,14.70
2019-02-02T15:06:36.566Z,15.70
2019-02-02T15:09:10.277Z,15.32
2019-02-02T15:11:44.649Z,13.70
2019-02-02T15:14:18.988Z,16.02
2019-02-02T15:16:52.770Z,14.93
2019-02-02T15:19:26.577Z,21.58
2019-02-02T15:22:01.088Z,13.15
2019-02-02T15:24:34.851Z,14.40
2019-02-02T15:27:08.532Z,17.50
2019-02-02T15:29:42.358Z,19.50
2019-02-02T15:32:16.064Z,15.30
2019-02-02T15:34:49.839Z,15.48
2019-02-02T15:37:23.501Z,16.62
2019-02-02T15:39:57.483Z,13.05
2019-02-02T15:42:31.219Z,14.85
2019-02-02T15:45:05.577Z,14.40
2019-02-02T15:47:39.097Z,14.38
2019-02-02T15:50:13.562Z,14.93
2019-02-02T15:52:48.126Z,12.52
2019-02-02T15:55:23.279Z,17.73
2019-02-02T15:57:56.924Z,13.27
2019-02-02T16:00:31.480Z,15.98
2019-02-02T16:03:05.867Z,12.88
2019-02-02T16:05:40.217Z,16.10
2019-02-02T16:08:14.619Z,16.30
2019-02-02T16:10:48.375Z,15.38
2019-02-02T16:13:22.869Z,12.30
2019-02-02T16:15:56.484Z,13.30
2019-02-02T16:18:30.271Z,13.50
2019-02-02T16:21:04.691Z,13.32
2019-02-02T16:23:38.296Z,13.77
2019-02-02T16:26:12.023Z,16.87
2019-02-02T16:28:45.828Z,12.30
2019-02-02T16:31:19.630Z,11.25
2019-02-02T16:34:01.733Z,13.60
2019-02-02T16:36:26.823Z,14.32
2019-02-02T16:39:01.327Z,16.25
2019-02-02T16:41:34.979Z,17.37
2019-02-02T16:44:08.551Z,15.18
2019-02-02T16:46:42.243Z,14.02
2019-02-02T16:49:15.997Z,18.00
2019-02-02T16:51:49.713Z,16.77
2019-02-02T16:54:23.618Z,14.57
2019-02-02T16:56:57.173Z,17.55
2019-02-02T16:59:30.872Z,16.48
2019-02-02T17:02:04.432Z,16.33
2019-02-02T17:04:38.074Z,15.15
2019-02-02T17:07:12.570Z,16.87
2019-02-02T17:09:46.275Z,16.02
2019-02-02T17:12:19.957Z,13.93
2019-02-02T17:14:55.714Z,12.75
2019-02-02T17:17:27.288Z,15.65
2019-02-02T17:20:00.938Z,15.02
2019-02-02T17:22:35.344Z,15.88
2019-02-02T17:25:10.516Z,15.38
2019-02-02T17:27:44.095Z,18.08
2019-02-02T17:30:20.547Z,15.63
2019-02-02T17:32:54.200Z,15.80
2019-02-02T17:35:27.741Z,16.00
2019-02-02T17:38:01.497Z,22.60
2019-02-02T17:40:35.161Z,21.35
2019-02-02T17:43:08.839Z,17.33
2019-02-02T17:45:43.154Z,22.37
2019-02-02T17:48:16.688Z,21.00
2019-02-02T17:50:50.355Z,18.55
2019-02-02T17:53:23.897Z,19.83
2019-02-02T17:55:57.547Z,17.12
2019-02-02T17:58:39.308Z,17.42
2019-02-02T18:01:05.839Z,20.55
2019-02-02T18:03:39.664Z,17.77
2019-02-02T18:06:13.424Z,22.37
2019-02-02T18:08:47.891Z,20.25
2019-02-02T18:11:22.255Z,21.27
2019-02-02T18:13:55.951Z,20.30
2019-02-02T18:16:29.647Z,18.30
2019-02-02T18:19:03.201Z,21.75
2019-02-02T18:21:36.938Z,17.85
2019-02-02T18:24:10.668Z,17.60
2019-02-02T18:26:45.258Z,27.13
2019-02-02T18:29:19.020Z,18.87
2019-02-02T18:31:52.625Z,19.87
2019-02-02T18:34:26.413Z,21.48
2019-02-02T18:36:59.917Z,19.62
2019-02-02T18:39:33.604Z,19.23
2019-02-02T18:42:07.903Z,17.77
2019-02-02T18:44:42.336Z,22.23
2019-02-02T18:47:15.911Z,21.40
2019-02-02T18:49:49.659Z,20.58
2019-02-02T18:52:23.461Z,20.42
2019-02-02T18:54:57.015Z,22.10
2019-02-02T18:57:30.783Z,20.42
2019-02-02T19:00:06.252Z,23.85
2019-02-02T19:02:38.702Z,21.83
2019-02-02T19:05:12.537Z,20.83
2019-02-02T19:07:46.161Z,21.52
2019-02-02T19:10:19.843Z,21.92
2019-02-02T19:12:53.363Z,19.37
2019-02-02T19:15:27.812Z,26.08
2019-02-02T19:18:03.406Z,22.92
2019-02-02T19:20:35.304Z,19.83
2019-02-02T19:23:09.808Z,22.50
2019-02-02T19:25:43.963Z,25.05
2019-02-02T19:28:17.695Z,20.37
2019-02-02T19:30:53.535Z,24.55
2019-02-02T19:33:24.761Z,20.92
2019-02-02T19:35:58.386Z,23.48
2019-02-02T19:38:32.142Z,22.75
2019-02-02T19:41:06.484Z,28.00
2019-02-02T19:43:40.066Z,21.60
2019-02-02T19:46:13.835Z,21.92
2019-02-02T19:48:47.443Z,23.05
2019-02-02T19:51:21.230Z,18.17
2019-02-02T19:53:55.000Z,24.60
2019-02-02T19:56:28.627Z,24.02
2019-02-02T19:59:02.278Z,21.17
2019-02-02T20:01:35.880Z,22.42
2019-02-02T20:04:09.484Z,23.77
2019-02-02T20:06:43.196Z,20.77
2019-02-02T20:09:16.966Z,22.90
2019-02-02T20:11:50.497Z,26.02
2019-02-02T20:14:24.067Z,27.60
2019-02-02T20:16:58.412Z,30.27
2019-02-02T20:19:32.095Z,22.10
2019-02-02T20:22:05.855Z,26.62
2019-02-02T20:24:39.558Z,21.62
2019-02-02T20:27:13.854Z,26.00
2019-02-02T20:29:47.438Z,22.10
2019-02-02T20:32:21.044Z,25.62
2019-02-02T20:34:55.547Z,23.55
2019-02-02T20:37:29.252Z,29.48
2019-02-02T20:40:02.995Z,28.20
2019-02-02T20:42:36.724Z,24.15
2019-02-02T20:45:14.177Z,30.67
2019-02-02T20:47:47.853Z,27.77
2019-02-02T20:50:21.425Z,27.85
2019-02-02T20:52:55.078Z,27.00
2019-02-02T20:55:31.500Z,26.83
2019-02-02T20:58:05.160Z,23.62
2019-02-02T21:00:38.719Z,22.52
2019-02-02T21:03:12.350Z,28.20
2019-02-02T21:05:52.387Z,26.40
2019-02-02T21:08:19.374Z,25.77
2019-02-02T21:10:53.111Z,28.70
2019-02-02T21:13:26.763Z,24.23
2019-02-02T21:16:00.486Z,23.52
2019-02-02T21:18:34.169Z,25.05
2019-02-02T21:21:07.685Z,30.05
2019-02-02T21:23:41.390Z,24.63
2019-02-02T21:26:15.514Z,25.90
2019-02-02T21:28:50.681Z,29.70
2019-02-02T21:31:22.925Z,23.90
2019-02-02T21:33:56.731Z,21.98
2019-02-02T21:36:30.439Z,25.30
2019-02-02T21:39:04.031Z,24.55
2019-02-02T21:41:37.732Z,26.90
2019-02-02T21:44:11.312Z,22.87
2019-02-02T21:46:44.897Z,21.83
2019-02-02T21:49:19.242Z,27.65
2019-02-02T21:51:53.623Z,24.52
2019-02-02T21:54:27.971Z,26.02
2019-02-02T21:57:01.737Z,25.83
2019-02-02T21:59:35.298Z,26.17
2019-02-02T22:02:08.939Z,24.02
2019-02-02T22:04:42.571Z,24.15
2019-02-02T22:07:16.111Z,25.77
2019-02-02T22:09:49.765Z,25.67
2019-02-02T22:12:23.515Z,23.75
2019-02-02T22:14:57.065Z,23.50
2019-02-02T22:17:31.061Z,23.73
2019-02-02T22:20:04.627Z,23.55
2019-02-02T22:22:38.453Z,25.50
2019-02-02T22:25:15.691Z,25.92
2019-02-02T22:27:49.288Z,22.40
2019-02-02T22:30:23.972Z,27.08
2019-02-02T22:32:58.323Z,35.47
2019-02-02T22:35:32.755Z,26.70
2019-02-02T22:38:06.370Z,26.67
2019-02-02T22:40:40.102Z,24.48
2019-02-02T22:43:13.831Z,25.17
2019-02-02T22:45:47.278Z,28.83
2019-02-02T22:48:20.887Z,25.83
2019-02-02T22:50:55.504Z,23.20
2019-02-02T22:53:29.184Z,25.67
2019-02-02T22:56:02.906Z,29.48
2019-02-02T22:58:36.699Z,26.60
2019-02-02T23:01:11.217Z,28.77
2019-02-02T23:03:53.226Z,29.67
2019-02-02T23:06:38.903Z,25.05
2019-02-02T23:09:10.534Z,27.10
2019-02-02T23:12:06.037Z,26.48
2019-02-02T23:14:46.203Z,25.37
2019-02-02T23:17:19.853Z,27.15
2019-02-02T23:19:54.045Z,25.95
2019-02-02T23:22:28.604Z,28.30
2019-02-02T23:25:02.268Z,30.25
2019-02-02T23:27:35.789Z,25.98
2019-02-02T23:30:13.085Z,24.15
2019-02-02T23:32:47.503Z,28.55
2019-02-02T23:35:21.183Z,21.92
2019-02-02T23:37:54.900Z,26.58
2019-02-02T23:40:28.481Z,31.45
2019-02-02T23:43:02.168Z,29.42
2019-02-02T23:45:35.991Z,29.63
2019-02-02T23:48:09.701Z,34.88
2019-02-02T23:50:43.323Z,24.35
2019-02-02T23:53:17.018Z,28.75
2019-02-02T23:55:50.598Z,29.48
2019-02-02T23:58:24.174Z,37.53
